createdAt,value
2023-05-13T00:00:33.492Z,24.58
2023-05-13T00:01:33.511Z,24.57
2023-05-13T00:02:33.631Z,24.57
2023-05-13T00:03:33.631Z,24.56
2023-05-13T00:04:33.596Z,24.56
2023-05-13T00:05:33.596Z,24.57
2023-05-13T00:06:33.647Z,24.57
2023-05-13T00:07:33.619Z,24.57
2023-05-13T00:08:33.625Z,24.57
2023-05-13T00:09:33.616Z,24.57
2023-05-13T00:10:33.642Z,24.57
2023-05-13T00:11:33.674Z,24.58
2023-05-13T00:12:33.675Z,24.57
2023-05-13T00:13:33.706Z,24.57
2023-05-13T00:14:33.667Z,24.57
2023-05-13T00:15:33.717Z,24.57
2023-05-13T00:16:33.757Z,24.58
2023-05-13T00:17:33.753Z,24.58
2023-05-13T00:18:33.775Z,24.57
2023-05-13T00:19:33.732Z,24.58
2023-05-13T00:20:33.747Z,24.58
2023-05-13T00:21:33.770Z,24.57
2023-05-13T00:22:33.808Z,24.58
2023-05-13T00:23:33.800Z,24.58
2023-05-13T00:24:33.817Z,24.57
2023-05-13T00:25:33.848Z,24.57
2023-05-13T00:26:33.849Z,24.57
2023-05-13T00:27:33.899Z,24.57
2023-05-13T00:28:33.907Z,24.57
2023-05-13T00:29:33.908Z,24.58
2023-05-13T00:30:33.911Z,24.58
2023-05-13T00:31:33.972Z,24.58
2023-05-13T00:32:33.971Z,24.57
2023-05-13T00:33:33.976Z,24.57
2023-05-13T00:34:33.981Z,24.57
2023-05-13T00:35:33.993Z,24.57
2023-05-13T00:36:34.000Z,24.57
2023-05-13T00:37:34.027Z,24.57
2023-05-13T00:38:34.058Z,24.57
2023-05-13T00:39:34.023Z,24.57
2023-05-13T00:40:34.040Z,24.57
2023-05-13T00:41:34.046Z,24.57
2023-05-13T00:42:34.090Z,24.57
2023-05-13T00:43:34.096Z,24.57
2023-05-13T00:44:34.117Z,24.56
2023-05-13T00:45:34.144Z,24.57
2023-05-13T00:46:34.118Z,24.56
2023-05-13T00:47:34.214Z,24.56
2023-05-13T00:48:34.156Z,24.55
2023-05-13T00:49:34.170Z,24.55
2023-05-13T00:50:34.170Z,24.54
2023-05-13T00:51:34.238Z,24.54
2023-05-13T00:52:34.194Z,24.55
2023-05-13T00:53:34.192Z,24.53
2023-05-13T00:54:34.227Z,24.53
2023-05-13T00:55:34.253Z,24.54
2023-05-13T00:56:34.249Z,24.53
2023-05-13T00:57:34.266Z,24.54
2023-05-13T00:58:34.288Z,24.54
2023-05-13T00:59:34.267Z,24.55
2023-05-13T01:00:34.299Z,24.54
2023-05-13T01:01:34.358Z,24.55
2023-05-13T01:02:34.386Z,24.54
2023-05-13T01:03:34.381Z,24.54
2023-05-13T01:04:34.364Z,24.54
2023-05-13T01:05:34.380Z,24.55
2023-05-13T01:06:34.386Z,24.55
2023-05-13T01:07:34.380Z,24.54
2023-05-13T01:08:34.390Z,24.54
2023-05-13T01:09:34.426Z,24.54
2023-05-13T01:10:34.421Z,24.54
2023-05-13T01:11:34.425Z,24.55
2023-05-13T01:12:34.441Z,24.54
2023-05-13T01:13:34.449Z,24.54
2023-05-13T01:14:34.454Z,24.54
2023-05-13T01:15:34.504Z,24.54
2023-05-13T01:16:34.539Z,24.55
2023-05-13T01:17:34.522Z,24.55
2023-05-13T01:18:34.543Z,24.55
2023-05-13T01:19:34.560Z,24.55
2023-05-13T01:20:34.533Z,24.54
2023-05-13T01:21:34.571Z,24.55
2023-05-13T01:22:34.583Z,24.54
2023-05-13T01:23:34.533Z,24.54
2023-05-13T01:24:34.620Z,24.54
2023-05-13T01:25:34.614Z,24.54
2023-05-13T01:26:34.627Z,24.54
2023-05-13T01:27:34.631Z,24.53
2023-05-13T01:28:34.680Z,24.53
2023-05-13T01:29:34.677Z,24.53
2023-05-13T01:30:34.742Z,24.54
2023-05-13T01:31:34.718Z,24.55
2023-05-13T01:32:34.828Z,24.54
2023-05-13T01:33:34.753Z,24.53
2023-05-13T01:34:34.753Z,24.53
2023-05-13T01:35:34.791Z,24.54
2023-05-13T01:36:34.793Z,24.55
2023-05-13T01:37:34.806Z,24.54
2023-05-13T01:38:34.831Z,24.54
2023-05-13T01:39:34.824Z,24.53
2023-05-13T01:40:35.428Z,24.53
2023-05-13T01:41:34.854Z,24.54
2023-05-13T01:42:34.851Z,24.54
2023-05-13T01:43:34.851Z,24.54
2023-05-13T01:44:34.849Z,24.53
2023-05-13T01:45:34.900Z,24.53
2023-05-13T01:46:34.927Z,24.52
2023-05-13T01:47:34.878Z,24.53
2023-05-13T01:48:34.941Z,24.52
2023-05-13T01:49:34.903Z,24.52
2023-05-13T01:50:34.956Z,24.53
2023-05-13T01:51:34.954Z,24.53
2023-05-13T01:52:34.942Z,24.53
2023-05-13T01:53:34.960Z,24.53
2023-05-13T01:54:34.956Z,24.52
2023-05-13T01:55:34.973Z,24.52
2023-05-13T01:56:34.987Z,24.52
2023-05-13T01:57:34.995Z,24.53
2023-05-13T01:58:35.045Z,24.53
2023-05-13T01:59:35.053Z,24.53
2023-05-13T02:00:35.059Z,24.53
2023-05-13T02:01:35.089Z,24.53
2023-05-13T02:02:35.168Z,24.52
2023-05-13T02:03:35.206Z,24.53
2023-05-13T02:04:35.121Z,24.53
2023-05-13T02:05:35.176Z,24.53
2023-05-13T02:06:35.164Z,24.53
2023-05-13T02:07:35.185Z,24.53
2023-05-13T02:08:35.255Z,24.53
2023-05-13T02:09:35.268Z,24.52
2023-05-13T02:10:35.236Z,24.53
2023-05-13T02:11:35.252Z,24.53
2023-05-13T02:12:35.264Z,24.52
2023-05-13T02:13:35.276Z,24.53
2023-05-13T02:14:35.289Z,24.52
2023-05-13T02:15:35.357Z,24.52
2023-05-13T02:16:35.336Z,24.53
2023-05-13T02:17:35.402Z,24.52
2023-05-13T02:18:35.373Z,24.53
2023-05-13T02:19:35.417Z,24.52
2023-05-13T02:20:35.419Z,24.52
2023-05-13T02:21:35.448Z,24.52
2023-05-13T02:22:35.431Z,24.52
2023-05-13T02:23:35.447Z,24.52
2023-05-13T02:24:35.467Z,24.52
2023-05-13T02:25:35.497Z,24.52
2023-05-13T02:26:35.486Z,24.52
2023-05-13T02:27:35.530Z,24.52
2023-05-13T02:28:35.554Z,24.52
2023-05-13T02:29:35.554Z,24.51
2023-05-13T02:30:35.568Z,24.51
2023-05-13T02:31:35.633Z,24.51
2023-05-13T02:32:35.618Z,24.50
2023-05-13T02:33:35.603Z,24.50
2023-05-13T02:34:35.637Z,24.50
2023-05-13T02:35:35.664Z,24.50
2023-05-13T02:36:35.653Z,24.49
2023-05-13T02:37:35.666Z,24.50
2023-05-13T02:38:35.717Z,24.50
2023-05-13T02:39:35.752Z,24.49
2023-05-13T02:40:35.774Z,24.49
2023-05-13T02:41:35.788Z,24.49
2023-05-13T02:42:35.799Z,24.49
2023-05-13T02:43:35.824Z,24.49
2023-05-13T02:44:35.865Z,24.50
2023-05-13T02:45:35.974Z,24.50
2023-05-13T02:46:35.920Z,24.49
2023-05-13T02:47:35.903Z,24.49
2023-05-13T02:48:35.902Z,24.50
2023-05-13T02:49:35.908Z,24.50
2023-05-13T02:50:35.954Z,24.49
2023-05-13T02:51:35.972Z,24.50
2023-05-13T02:52:35.999Z,24.49
2023-05-13T02:53:36.029Z,24.50
2023-05-13T02:54:36.006Z,24.50
2023-05-13T02:55:36.056Z,24.50
2023-05-13T02:56:36.066Z,24.50
2023-05-13T02:57:36.081Z,24.51
2023-05-13T02:58:36.084Z,24.51
2023-05-13T02:59:36.106Z,24.49
2023-05-13T03:00:36.121Z,24.50
2023-05-13T03:01:36.140Z,24.50
2023-05-13T03:02:36.265Z,24.50
2023-05-13T03:03:36.205Z,24.50
2023-05-13T03:04:36.173Z,24.50
2023-05-13T03:05:36.171Z,24.51
2023-05-13T03:06:36.173Z,24.50
2023-05-13T03:07:36.174Z,24.50
2023-05-13T03:08:36.181Z,24.51
2023-05-13T03:09:36.187Z,24.50
2023-05-13T03:10:36.190Z,24.50
2023-05-13T03:11:36.240Z,24.51
2023-05-13T03:12:36.236Z,24.50
2023-05-13T03:13:36.247Z,24.51
2023-05-13T03:14:36.232Z,24.49
2023-05-13T03:15:36.272Z,24.49
2023-05-13T03:16:36.288Z,24.49
2023-05-13T03:17:36.288Z,24.49
2023-05-13T03:18:37.109Z,24.49
2023-05-13T03:19:36.313Z,24.48
2023-05-13T03:20:36.346Z,24.49
2023-05-13T03:21:36.379Z,24.49
2023-05-13T03:22:36.378Z,24.49
2023-05-13T03:23:36.351Z,24.48
2023-05-13T03:24:36.376Z,24.48
2023-05-13T03:25:36.383Z,24.49
2023-05-13T03:26:36.443Z,24.48
2023-05-13T03:27:36.444Z,24.48
2023-05-13T03:28:36.411Z,24.48
2023-05-13T03:29:36.444Z,24.47
2023-05-13T03:30:36.619Z,24.48
2023-05-13T03:31:36.563Z,24.48
2023-05-13T03:32:36.544Z,24.48
2023-05-13T03:33:36.513Z,24.48
2023-05-13T03:34:36.527Z,24.48
2023-05-13T03:35:36.556Z,24.48
2023-05-13T03:36:36.560Z,24.48
2023-05-13T03:37:36.568Z,24.48
2023-05-13T03:38:36.627Z,24.48
2023-05-13T03:39:36.662Z,24.48
2023-05-13T03:40:36.649Z,24.49
2023-05-13T03:41:36.656Z,24.49
2023-05-13T03:42:36.659Z,24.49
2023-05-13T03:43:36.667Z,24.48
2023-05-13T03:44:36.693Z,24.49
2023-05-13T03:45:36.695Z,24.48
2023-05-13T03:46:36.727Z,24.48
2023-05-13T03:47:36.735Z,24.49
2023-05-13T03:48:36.735Z,24.48
2023-05-13T03:49:36.769Z,24.49
2023-05-13T03:50:36.795Z,24.48
2023-05-13T03:51:36.825Z,24.48
2023-05-13T03:52:36.814Z,24.48
2023-05-13T03:53:36.838Z,24.48
2023-05-13T03:54:36.863Z,24.48
2023-05-13T03:55:36.891Z,24.48
2023-05-13T03:56:36.921Z,24.48
2023-05-13T03:57:36.938Z,24.47
2023-05-13T03:58:36.950Z,24.48
2023-05-13T03:59:36.967Z,24.47
2023-05-13T04:00:36.965Z,24.47
2023-05-13T04:01:37.032Z,24.47
2023-05-13T04:02:37.134Z,24.48
2023-05-13T04:03:37.033Z,24.47
2023-05-13T04:04:37.151Z,24.48
2023-05-13T04:05:37.088Z,24.47
2023-05-13T04:06:37.087Z,24.47
2023-05-13T04:07:37.100Z,24.47
2023-05-13T04:08:37.131Z,24.47
2023-05-13T04:09:37.127Z,24.48
2023-05-13T04:10:37.148Z,24.48
2023-05-13T04:11:37.172Z,24.48
2023-05-13T04:12:37.180Z,24.48
2023-05-13T04:13:37.210Z,24.48
2023-05-13T04:14:37.195Z,24.48
2023-05-13T04:15:37.197Z,24.47
2023-05-13T04:16:37.281Z,24.48
2023-05-13T04:17:37.302Z,24.48
2023-05-13T04:18:37.304Z,24.48
2023-05-13T04:19:37.287Z,24.47
2023-05-13T04:20:37.298Z,24.48
2023-05-13T04:21:37.309Z,24.47
2023-05-13T04:22:37.318Z,24.47
2023-05-13T04:23:37.368Z,24.47
2023-05-13T04:24:37.361Z,24.47
2023-05-13T04:25:37.483Z,24.47
2023-05-13T04:26:37.445Z,24.47
2023-05-13T04:27:37.419Z,24.47
2023-05-13T04:28:37.421Z,24.47
2023-05-13T04:29:37.416Z,24.47
2023-05-13T04:30:37.460Z,24.47
2023-05-13T04:31:37.519Z,24.47
2023-05-13T04:32:37.542Z,24.47
2023-05-13T04:33:37.518Z,24.46
2023-05-13T04:34:37.551Z,24.46
2023-05-13T04:35:37.556Z,24.47
2023-05-13T04:36:37.579Z,24.47
2023-05-13T04:37:37.589Z,24.47
2023-05-13T04:38:37.613Z,24.47
2023-05-13T04:39:37.631Z,24.47
2023-05-13T04:40:37.640Z,24.46
2023-05-13T04:41:37.704Z,24.46
2023-05-13T04:42:37.712Z,24.46
2023-05-13T04:43:37.721Z,24.46
2023-05-13T04:44:37.744Z,24.46
2023-05-13T04:45:37.760Z,24.46
2023-05-13T04:46:37.889Z,24.46
2023-05-13T04:47:37.886Z,24.45
2023-05-13T04:48:37.842Z,24.45
2023-05-13T04:49:37.863Z,24.45
2023-05-13T04:50:37.899Z,24.45
2023-05-13T04:51:37.914Z,24.44
2023-05-13T04:52:37.944Z,24.44
2023-05-13T04:53:37.973Z,24.43
2023-05-13T04:54:37.982Z,24.41
2023-05-13T04:55:38.016Z,24.40
2023-05-13T04:56:38.023Z,24.39
2023-05-13T04:57:38.070Z,24.38
2023-05-13T04:58:38.081Z,24.38
2023-05-13T04:59:38.107Z,24.38
2023-05-13T05:00:38.156Z,24.37
2023-05-13T05:01:38.229Z,24.36
2023-05-13T05:02:38.230Z,24.35
2023-05-13T05:03:38.321Z,24.34
2023-05-13T05:04:38.254Z,24.34
2023-05-13T05:05:38.281Z,24.32
2023-05-13T05:06:38.318Z,24.33
2023-05-13T05:07:38.403Z,24.32
2023-05-13T05:08:38.405Z,24.33
2023-05-13T05:09:38.479Z,24.32
2023-05-13T05:10:38.484Z,24.32
2023-05-13T05:11:38.544Z,24.31
2023-05-13T05:12:38.556Z,24.31
2023-05-13T05:13:38.627Z,24.30
2023-05-13T05:14:38.629Z,24.30
2023-05-13T05:15:38.682Z,24.30
2023-05-13T05:16:38.695Z,24.30
2023-05-13T05:17:38.813Z,24.30
2023-05-13T05:18:39.692Z,24.30
2023-05-13T05:19:38.766Z,24.31
2023-05-13T05:20:38.817Z,24.32
2023-05-13T05:21:38.882Z,24.32
2023-05-13T05:22:38.882Z,24.32
2023-05-13T05:23:38.920Z,24.34
2023-05-13T05:24:38.905Z,24.34
2023-05-13T05:25:38.992Z,24.35
2023-05-13T05:26:39.826Z,24.35
2023-05-13T05:27:39.011Z,24.36
2023-05-13T05:28:39.067Z,24.36
2023-05-13T05:29:39.104Z,24.36
2023-05-13T05:30:39.119Z,24.37
2023-05-13T05:31:39.246Z,24.37
2023-05-13T05:32:40.175Z,24.38
2023-05-13T05:33:39.216Z,24.37
2023-05-13T05:34:39.196Z,24.38
2023-05-13T05:35:39.233Z,24.40
2023-05-13T05:36:39.258Z,24.39
2023-05-13T05:37:39.309Z,24.41
2023-05-13T05:38:39.310Z,24.41
2023-05-13T05:39:39.337Z,24.41
2023-05-13T05:40:39.360Z,24.41
2023-05-13T05:41:39.435Z,24.42
2023-05-13T05:42:39.404Z,24.42
2023-05-13T05:43:39.464Z,24.43
2023-05-13T05:44:39.486Z,24.42
2023-05-13T05:45:39.556Z,24.42
2023-05-13T05:46:39.535Z,24.44
2023-05-13T05:47:39.599Z,24.43
2023-05-13T05:48:39.604Z,24.44
2023-05-13T05:49:39.582Z,24.43
2023-05-13T05:50:39.605Z,24.44
2023-05-13T05:51:39.602Z,24.44
2023-05-13T05:52:39.650Z,24.44
2023-05-13T05:53:39.653Z,24.44
2023-05-13T05:54:39.656Z,24.45
2023-05-13T05:55:39.684Z,24.44
2023-05-13T05:56:39.666Z,24.46
2023-05-13T05:57:39.697Z,24.46
2023-05-13T05:58:39.678Z,24.46
2023-05-13T05:59:39.686Z,24.47
2023-05-13T06:00:39.696Z,24.46
2023-05-13T06:01:39.726Z,24.46
2023-05-13T06:02:39.801Z,24.46
2023-05-13T06:03:40.734Z,24.47
2023-05-13T06:04:39.793Z,24.48
2023-05-13T06:05:39.800Z,24.46
2023-05-13T06:06:39.828Z,24.48
2023-05-13T06:07:39.808Z,24.48
2023-05-13T06:08:39.863Z,24.49
2023-05-13T06:09:39.876Z,24.49
2023-05-13T06:10:39.865Z,24.49
2023-05-13T06:11:39.883Z,24.48
2023-05-13T06:12:39.902Z,24.49
2023-05-13T06:13:39.941Z,24.49
2023-05-13T06:14:39.970Z,24.49
2023-05-13T06:15:40.065Z,24.49
2023-05-13T06:16:39.970Z,24.50
2023-05-13T06:17:40.059Z,24.50
2023-05-13T06:18:40.097Z,24.50
2023-05-13T06:19:40.035Z,24.50
2023-05-13T06:20:40.039Z,24.50
2023-05-13T06:21:40.061Z,24.51
2023-05-13T06:22:40.025Z,24.51
2023-05-13T06:23:40.050Z,24.51
2023-05-13T06:24:40.061Z,24.51
2023-05-13T06:25:40.066Z,24.51
2023-05-13T06:26:40.067Z,24.51
2023-05-13T06:27:40.082Z,24.51
2023-05-13T06:28:40.135Z,24.52
2023-05-13T06:29:40.126Z,24.52
2023-05-13T06:30:40.140Z,24.52
2023-05-13T06:31:40.193Z,24.52
2023-05-13T06:32:47.223Z,24.52
2023-05-13T06:33:41.170Z,24.51
2023-05-13T06:34:40.185Z,24.51
2023-05-13T06:35:40.135Z,24.52
2023-05-13T06:36:40.129Z,24.52
2023-05-13T06:37:40.091Z,24.53
2023-05-13T06:38:40.083Z,24.52
2023-05-13T06:39:40.073Z,24.52
2023-05-13T06:40:40.060Z,24.51
2023-05-13T06:41:40.066Z,24.52
2023-05-13T06:42:40.065Z,24.52
2023-05-13T06:43:40.060Z,24.51
2023-05-13T06:44:40.008Z,24.51
2023-05-13T06:45:39.983Z,24.51
2023-05-13T06:46:40.009Z,24.51
2023-05-13T06:47:39.982Z,24.51
2023-05-13T06:48:39.931Z,24.51
2023-05-13T06:49:39.932Z,24.51
2023-05-13T06:50:39.925Z,24.50
2023-05-13T06:51:39.877Z,24.50
2023-05-13T06:52:41.854Z,24.50
2023-05-13T06:53:39.866Z,24.50
2023-05-13T06:54:39.900Z,24.51
2023-05-13T06:55:39.903Z,24.51
2023-05-13T06:56:39.908Z,24.51
2023-05-13T06:57:43.039Z,24.51
2023-05-13T06:58:39.923Z,24.51
2023-05-13T06:59:39.902Z,24.52
2023-05-13T07:00:39.877Z,24.51
2023-05-13T07:01:39.918Z,24.52
2023-05-13T07:02:39.845Z,24.51
2023-05-13T07:03:39.858Z,24.52
2023-05-13T07:04:39.770Z,24.53
2023-05-13T07:05:40.685Z,24.53
2023-05-13T07:06:39.785Z,24.53
2023-05-13T07:07:39.753Z,24.54
2023-05-13T07:08:39.702Z,24.53
2023-05-13T07:09:39.708Z,24.54
2023-05-13T07:10:39.696Z,24.54
2023-05-13T07:11:39.660Z,24.55
2023-05-13T07:12:39.650Z,24.55
2023-05-13T07:13:40.104Z,24.56
2023-05-13T07:14:39.624Z,24.56
2023-05-13T07:15:39.644Z,24.57
2023-05-13T07:16:39.602Z,24.57
2023-05-13T07:17:39.604Z,24.57
2023-05-13T07:18:39.556Z,24.57
2023-05-13T07:19:39.484Z,24.58
2023-05-13T07:20:39.466Z,24.59
2023-05-13T07:21:39.477Z,24.58
2023-05-13T07:22:39.439Z,24.59
2023-05-13T07:23:39.428Z,24.59
2023-05-13T07:24:39.426Z,24.59
2023-05-13T07:25:39.408Z,24.59
2023-05-13T07:26:39.341Z,24.60
2023-05-13T07:27:39.296Z,24.60
2023-05-13T07:28:39.269Z,24.61
2023-05-13T07:29:39.289Z,24.61
2023-05-13T07:30:39.281Z,24.60
2023-05-13T07:31:39.263Z,24.62
2023-05-13T07:32:39.281Z,24.61
2023-05-13T07:33:39.199Z,24.62
2023-05-13T07:34:39.241Z,24.63
2023-05-13T07:35:39.165Z,24.63
2023-05-13T07:36:39.133Z,24.64
2023-05-13T07:37:39.120Z,24.64
2023-05-13T07:38:39.090Z,24.65
2023-05-13T07:39:39.077Z,24.64
2023-05-13T07:40:39.048Z,24.64
2023-05-13T07:41:39.040Z,24.65
2023-05-13T07:42:39.003Z,24.65
2023-05-13T07:43:38.978Z,24.65
2023-05-13T07:44:38.989Z,24.66
2023-05-13T07:45:38.964Z,24.67
2023-05-13T07:46:39.001Z,24.67
2023-05-13T07:47:38.987Z,24.67
2023-05-13T07:48:38.899Z,24.68
2023-05-13T07:49:38.895Z,24.68
2023-05-13T07:50:38.877Z,24.69
2023-05-13T07:51:38.865Z,24.69
2023-05-13T07:52:38.846Z,24.69
2023-05-13T07:53:38.801Z,24.69
2023-05-13T07:54:38.806Z,24.69
2023-05-13T07:55:38.789Z,24.69
2023-05-13T07:56:38.774Z,24.69
2023-05-13T07:57:38.772Z,24.69
2023-05-13T07:58:38.746Z,24.69
2023-05-13T07:59:38.683Z,24.70
2023-05-13T08:00:38.685Z,24.71
2023-05-13T08:01:38.662Z,24.70
2023-05-13T08:02:38.776Z,24.71
2023-05-13T08:03:38.774Z,24.72
2023-05-13T08:04:38.701Z,24.72
2023-05-13T08:05:38.621Z,24.72
2023-05-13T08:06:40.103Z,24.72
2023-05-13T08:07:38.638Z,24.73
2023-05-13T08:08:38.653Z,24.73
2023-05-13T08:09:38.625Z,24.73
2023-05-13T08:10:38.663Z,24.73
2023-05-13T08:11:38.672Z,24.74
2023-05-13T08:12:38.666Z,24.76
2023-05-13T08:13:38.678Z,24.76
2023-05-13T08:14:38.654Z,24.77
2023-05-13T08:15:38.661Z,24.77
2023-05-13T08:16:38.738Z,24.77
2023-05-13T08:17:38.706Z,24.77
2023-05-13T08:18:38.668Z,24.77
2023-05-13T08:19:38.637Z,24.78
2023-05-13T08:20:38.656Z,24.78
2023-05-13T08:21:38.650Z,24.77
2023-05-13T08:22:38.649Z,24.76
2023-05-13T08:23:45.308Z,24.72
2023-05-13T08:24:39.636Z,24.66
2023-05-13T08:25:38.616Z,24.63
2023-05-13T08:26:38.606Z,24.61
2023-05-13T08:27:38.567Z,24.60
2023-05-13T08:28:38.546Z,24.60
2023-05-13T08:29:38.532Z,24.61
2023-05-13T08:30:38.514Z,24.61
2023-05-13T08:31:38.523Z,24.61
2023-05-13T08:32:38.561Z,24.58
2023-05-13T08:33:38.487Z,24.55
2023-05-13T08:34:38.468Z,24.55
2023-05-13T08:35:38.459Z,24.54
2023-05-13T08:36:38.442Z,24.53
2023-05-13T08:37:38.434Z,24.51
2023-05-13T08:38:38.389Z,24.49
2023-05-13T08:39:38.407Z,24.47
2023-05-13T08:40:38.388Z,24.45
2023-05-13T08:41:38.338Z,24.43
2023-05-13T08:42:38.380Z,24.37
2023-05-13T08:43:38.316Z,24.35
2023-05-13T08:44:38.293Z,24.33
2023-05-13T08:45:38.324Z,24.31
2023-05-13T08:46:38.507Z,24.32
2023-05-13T08:47:38.329Z,24.30
2023-05-13T08:48:38.249Z,24.31
2023-05-13T08:49:38.328Z,24.33
2023-05-13T08:50:38.318Z,24.32
2023-05-13T08:51:38.353Z,24.32
2023-05-13T08:52:38.385Z,24.32
2023-05-13T08:53:38.398Z,24.31
2023-05-13T08:54:38.411Z,24.32
2023-05-13T08:55:38.453Z,24.29
2023-05-13T08:56:38.512Z,24.29
2023-05-13T08:57:38.524Z,24.27
2023-05-13T08:58:38.544Z,24.26
2023-05-13T08:59:38.573Z,24.26
2023-05-13T09:00:38.604Z,24.26
2023-05-13T09:01:38.667Z,24.25
2023-05-13T09:02:38.647Z,24.26
2023-05-13T09:03:38.604Z,24.23
2023-05-13T09:04:38.623Z,24.25
2023-05-13T09:05:39.206Z,24.24
2023-05-13T09:06:38.614Z,24.24
2023-05-13T09:07:38.658Z,24.25
2023-05-13T09:08:38.710Z,24.26
2023-05-13T09:09:38.750Z,24.28
2023-05-13T09:10:38.731Z,24.31
2023-05-13T09:11:38.769Z,24.33
2023-05-13T09:12:38.811Z,24.36
2023-05-13T09:13:38.845Z,24.38
2023-05-13T09:14:38.852Z,24.38
2023-05-13T09:15:38.923Z,24.39
2023-05-13T09:16:38.994Z,24.38
2023-05-13T09:17:39.033Z,24.37
2023-05-13T09:18:39.264Z,24.36
2023-05-13T09:19:39.194Z,24.36
2023-05-13T09:20:38.993Z,24.35
2023-05-13T09:21:39.052Z,24.36
2023-05-13T09:22:39.080Z,24.35
2023-05-13T09:23:39.096Z,24.34
2023-05-13T09:24:39.129Z,24.34
2023-05-13T09:25:39.184Z,24.36
2023-05-13T09:26:39.193Z,24.35
2023-05-13T09:27:39.216Z,24.36
2023-05-13T09:28:39.241Z,24.38
2023-05-13T09:29:39.293Z,24.36
2023-05-13T09:30:39.315Z,24.35
2023-05-13T09:31:39.396Z,24.34
2023-05-13T09:32:39.415Z,24.35
2023-05-13T09:33:39.410Z,24.34
2023-05-13T09:34:39.493Z,24.33
2023-05-13T09:35:39.505Z,24.32
2023-05-13T09:36:39.479Z,24.27
2023-05-13T09:37:39.558Z,24.25
2023-05-13T09:38:39.582Z,24.24
2023-05-13T09:39:39.598Z,24.23
2023-05-13T09:40:39.631Z,24.22
2023-05-13T09:41:39.680Z,24.21
2023-05-13T09:42:39.701Z,24.19
2023-05-13T09:43:39.720Z,24.21
2023-05-13T09:44:39.744Z,24.20
2023-05-13T09:45:39.830Z,24.21
2023-05-13T09:46:39.835Z,24.21
2023-05-13T09:47:39.923Z,24.20
2023-05-13T09:48:39.919Z,24.19
2023-05-13T09:49:39.951Z,24.19
2023-05-13T09:50:39.979Z,24.19
2023-05-13T09:51:40.025Z,24.16
2023-05-13T09:52:40.044Z,24.16
2023-05-13T09:53:40.063Z,24.15
2023-05-13T09:54:40.113Z,24.15
2023-05-13T09:55:40.140Z,24.14
2023-05-13T09:56:40.214Z,24.13
2023-05-13T09:57:40.227Z,24.12
2023-05-13T09:58:40.254Z,24.11
2023-05-13T09:59:40.294Z,24.11
2023-05-13T10:00:40.703Z,24.09
2023-05-13T10:01:40.463Z,24.06
2023-05-13T10:02:40.446Z,24.06
2023-05-13T10:03:40.490Z,24.07
2023-05-13T10:04:40.524Z,24.05
2023-05-13T10:05:40.530Z,24.05
2023-05-13T10:06:40.579Z,24.04
2023-05-13T10:07:40.605Z,24.03
2023-05-13T10:08:40.637Z,24.02
2023-05-13T10:09:40.714Z,24.02
2023-05-13T10:10:40.726Z,24.00
2023-05-13T10:11:40.778Z,24.00
2023-05-13T10:12:40.789Z,23.99
2023-05-13T10:13:40.870Z,23.98
2023-05-13T10:14:40.888Z,24.00
2023-05-13T10:15:40.965Z,24.00
2023-05-13T10:16:41.055Z,23.97
2023-05-13T10:17:41.137Z,23.96
2023-05-13T10:18:41.112Z,23.94
2023-05-13T10:19:41.202Z,23.93
2023-05-13T10:20:41.201Z,23.92
2023-05-13T10:21:41.251Z,23.90
2023-05-13T10:22:41.276Z,23.87
2023-05-13T10:23:41.321Z,23.86
2023-05-13T10:24:41.324Z,23.81
2023-05-13T10:25:41.378Z,23.77
2023-05-13T10:26:41.444Z,23.76
2023-05-13T10:27:41.434Z,23.77
2023-05-13T10:28:41.478Z,23.77
2023-05-13T10:29:41.540Z,23.76
2023-05-13T10:30:41.578Z,23.77
2023-05-13T10:31:41.684Z,23.77
2023-05-13T10:32:41.721Z,23.77
2023-05-13T10:33:41.733Z,23.78
2023-05-13T10:34:41.776Z,23.77
2023-05-13T10:35:42.989Z,23.77
2023-05-13T10:36:41.898Z,23.73
2023-05-13T10:37:41.927Z,23.73
2023-05-13T10:38:41.989Z,23.72
2023-05-13T10:39:42.052Z,23.73
2023-05-13T10:40:42.097Z,23.75
2023-05-13T10:41:42.198Z,23.76
2023-05-13T10:42:42.186Z,23.75
2023-05-13T10:43:42.217Z,23.74
2023-05-13T10:44:42.243Z,23.75
2023-05-13T10:45:42.334Z,23.75
2023-05-13T10:46:42.483Z,23.76
2023-05-13T10:47:42.524Z,23.78
2023-05-13T10:48:42.501Z,23.80
2023-05-13T10:49:42.555Z,23.82
2023-05-13T10:50:42.607Z,23.82
2023-05-13T10:51:42.663Z,23.85
2023-05-13T10:52:42.688Z,23.87
2023-05-13T10:53:42.786Z,23.90
2023-05-13T10:54:42.811Z,23.92
2023-05-13T10:55:42.834Z,23.91
2023-05-13T10:56:42.887Z,23.93
2023-05-13T10:57:42.934Z,23.92
2023-05-13T10:58:42.962Z,23.92
2023-05-13T10:59:43.044Z,23.93
2023-05-13T11:00:43.074Z,23.90
2023-05-13T11:01:43.372Z,23.89
2023-05-13T11:02:43.265Z,23.89
2023-05-13T11:03:43.390Z,23.87
2023-05-13T11:04:43.270Z,23.84
2023-05-13T11:05:43.327Z,23.81
2023-05-13T11:06:43.335Z,23.81
2023-05-13T11:07:43.377Z,23.78
2023-05-13T11:08:43.495Z,23.77
2023-05-13T11:09:43.500Z,23.79
2023-05-13T11:10:43.524Z,23.79
2023-05-13T11:11:43.622Z,23.80
2023-05-13T11:12:43.659Z,23.82
2023-05-13T11:13:43.703Z,23.81
2023-05-13T11:14:43.709Z,23.80
2023-05-13T11:15:43.798Z,23.81
2023-05-13T11:16:43.850Z,23.81
2023-05-13T11:17:43.866Z,23.81
2023-05-13T11:18:43.868Z,23.81
2023-05-13T11:19:43.897Z,23.78
2023-05-13T11:20:52.209Z,23.77
2023-05-13T11:21:44.965Z,23.77
2023-05-13T11:22:43.936Z,23.78
2023-05-13T11:23:43.935Z,23.75
2023-05-13T11:24:43.935Z,23.75
2023-05-13T11:25:43.922Z,23.75
2023-05-13T11:26:43.912Z,23.74
2023-05-13T11:27:43.889Z,23.76
2023-05-13T11:28:43.871Z,23.77
2023-05-13T11:29:43.864Z,23.75
2023-05-13T11:30:43.837Z,23.74
2023-05-13T11:31:43.996Z,23.74
2023-05-13T11:32:43.896Z,23.76
2023-05-13T11:33:43.889Z,23.77
2023-05-13T11:34:43.910Z,23.78
2023-05-13T11:35:43.972Z,23.78
2023-05-13T11:36:43.977Z,23.78
2023-05-13T11:37:44.016Z,23.78
2023-05-13T11:38:44.084Z,23.79
2023-05-13T11:39:44.102Z,23.80
2023-05-13T11:40:44.128Z,23.81
2023-05-13T11:41:44.168Z,23.80
2023-05-13T11:42:44.190Z,23.81
2023-05-13T11:43:44.217Z,23.83
2023-05-13T11:44:44.196Z,23.86
2023-05-13T11:45:44.286Z,23.86
2023-05-13T11:46:44.298Z,23.86
2023-05-13T11:47:44.409Z,23.85
2023-05-13T11:48:44.410Z,23.83
2023-05-13T11:49:44.431Z,23.84
2023-05-13T11:50:44.429Z,23.86
2023-05-13T11:51:44.498Z,23.87
2023-05-13T11:52:44.529Z,23.86
2023-05-13T11:53:44.587Z,23.87
2023-05-13T11:54:44.637Z,23.89
2023-05-13T11:55:44.677Z,23.91
2023-05-13T11:56:44.732Z,23.93
2023-05-13T11:57:44.784Z,23.94
2023-05-13T11:58:44.789Z,23.95
2023-05-13T11:59:48.243Z,23.96
2023-05-13T12:00:46.660Z,23.95
2023-05-13T12:01:44.827Z,23.92
2023-05-13T12:02:44.884Z,23.93
2023-05-13T12:03:44.745Z,23.94
2023-05-13T12:04:44.797Z,23.93
2023-05-13T12:05:44.883Z,23.90
2023-05-13T12:06:44.727Z,23.89
2023-05-13T12:07:44.713Z,23.89
2023-05-13T12:08:44.716Z,23.88
2023-05-13T12:09:44.788Z,23.88
2023-05-13T12:10:44.841Z,23.85
2023-05-13T12:11:44.883Z,23.85
2023-05-13T12:12:44.935Z,23.86
2023-05-13T12:13:44.984Z,23.85
2023-05-13T12:14:45.032Z,23.83
2023-05-13T12:15:45.098Z,23.82
2023-05-13T12:16:45.135Z,23.84
2023-05-13T12:17:45.271Z,23.85
2023-05-13T12:18:45.285Z,23.86
2023-05-13T12:19:45.235Z,23.85
2023-05-13T12:20:45.283Z,23.86
2023-05-13T12:21:45.377Z,23.88
2023-05-13T12:22:45.418Z,23.90
2023-05-13T12:23:45.468Z,23.88
2023-05-13T12:24:45.505Z,23.89
2023-05-13T12:25:45.624Z,23.90
2023-05-13T12:26:45.588Z,23.92
2023-05-13T12:27:45.629Z,23.94
2023-05-13T12:28:45.676Z,23.96
2023-05-13T12:29:45.681Z,23.97
2023-05-13T12:30:45.739Z,23.97
2023-05-13T12:31:45.838Z,23.98
2023-05-13T12:32:47.265Z,23.99
2023-05-13T12:33:45.881Z,23.98
2023-05-13T12:34:45.924Z,23.97
2023-05-13T12:35:45.961Z,23.99
2023-05-13T12:36:46.894Z,23.99
2023-05-13T12:37:46.023Z,23.99
2023-05-13T12:38:46.043Z,23.97
2023-05-13T12:39:46.059Z,23.97
2023-05-13T12:40:46.099Z,23.95
2023-05-13T12:41:46.098Z,23.95
2023-05-13T12:42:46.137Z,23.96
2023-05-13T12:43:46.163Z,23.97
2023-05-13T12:44:46.262Z,23.96
2023-05-13T12:45:46.285Z,23.97
2023-05-13T12:46:46.401Z,23.97
2023-05-13T12:47:46.395Z,23.98
2023-05-13T12:48:46.429Z,23.98
2023-05-13T12:49:46.464Z,24.00
2023-05-13T12:50:46.588Z,23.99
2023-05-13T12:51:46.600Z,24.02
2023-05-13T12:52:46.594Z,24.04